17:30
Airports
History
Links
Donate
Help keep this website running!
PayPal
Bitcoin
This page is community maintained. The information is intended for PC simulator navigation or reference.
Always use approved charts for navigation.
ENVD
Vadso
Vadso (ENVD)
Finnmark, Norway (9800)
(C)
Lat/Lng:70° 3' 54.81" N / 29° 50' 38.52" E
70.065224 / 29.844034
Elevation:125'ft / 38mMSL
ID / ICAO:ENVD
Runways:1
Longest:09-27
Asphalt 885m / 2,904ft
Controlled:Yes
METAR16:50 GMT 2017-09-21
Altimeter: 30.50
Visibility: 6.2 statute miles
Wind: 10 knots (from 210°)
Temp: 8°c / 46°f
Humidity: 70.6%

METAR: ENVD 211650Z 21010KT 9999 BKN033 08/03 Q1033

(Powered by phpweather)
Nearby VORs <50NM
Nearby NDBs
Runway 09 / 27
Dimensions:885.1 x 29.9m 2904' x 98'ft
Surface:Asphalt
Edge Lights:Medium intensity
Runway 09 [A]Runway 27 [B]
Heading:087°TH 267°TH
Lat:
Lng:
70° 3' 54.06"N
29° 49' 56.79"E
70° 3' 55.55"N
29° 51' 20.26"E
ALS:RAILRAIL
User Notes and Comments
70° 3' 54.81" N / 29° 50' 38.52" E
Distance To
Airport ID:
Nearby Airports
(C) HOYBUKTMOEN 23.5 NM
ENKR S 177°
(C) SVARTNES 34.5 NM
ENSS NE 54°
(C) BATSFJORD 37.1 NM
ENBS N 354°
(C) Berlevaag 58.8 NM
ENBV NNW 341°
(C) Mehamn 81.2 NM
ENMH NW 325°
(C) Honningsvaag Valan 110.2 NM
ENHV ( WX ) NW 306°
(C) Murmansk 113.3 NM
ULMM ( WX ) SE 141°
VFR Chart
Flight Planning at SkyVector.com